sensor_id;sensor_type;location;lat;lon;timestamp;pressure;altitude;pressure_sealevel;temperature
69704;BMP280;56967;43.538;-5.646;2022-10-31T00:02:05;101354.34;;;22.94
69704;BMP280;56967;43.538;-5.646;2022-10-31T00:04:30;101359.59;;;23.52
69704;BMP280;56967;43.538;-5.646;2022-10-31T00:06:56;101346.31;;;22.66
69704;BMP280;56967;43.538;-5.646;2022-10-31T00:09:22;101348.69;;;23.19
69704;BMP280;56967;43.538;-5.646;2022-10-31T00:11:47;101340.56;;;23.29
69704;BMP280;56967;43.538;-5.646;2022-10-31T00:14:13;101333.78;;;23.08
69704;BMP280;56967;43.538;-5.646;2022-10-31T00:16:38;101333.19;;;22.64
69704;BMP280;56967;43.538;-5.646;2022-10-31T00:19:07;101336.91;;;23.95
69704;BMP280;56967;43.538;-5.646;2022-10-31T00:21:33;101334.03;;;22.88
69704;BMP280;56967;43.538;-5.646;2022-10-31T00:24:00;101317.22;;;23.49
69704;BMP280;56967;43.538;-5.646;2022-10-31T00:26:30;101321.13;;;22.67
69704;BMP280;56967;43.538;-5.646;2022-10-31T00:28:57;101316.69;;;24.02
69704;BMP280;56967;43.538;-5.646;2022-10-31T00:31:23;101302.84;;;23.39
69704;BMP280;56967;43.538;-5.646;2022-10-31T00:33:48;101303.22;;;23.52
69704;BMP280;56967;43.538;-5.646;2022-10-31T00:36:16;101299.06;;;23.40
69704;BMP280;56967;43.538;-5.646;2022-10-31T00:38:43;101297.84;;;23.70
69704;BMP280;56967;43.538;-5.646;2022-10-31T00:41:09;101300.25;;;24.36
69704;BMP280;56967;43.538;-5.646;2022-10-31T00:43:35;101290.22;;;24.42
69704;BMP280;56967;43.538;-5.646;2022-10-31T00:46:00;101291.56;;;24.58
69704;BMP280;56967;43.538;-5.646;2022-10-31T00:48:26;101288.47;;;23.49
69704;BMP280;56967;43.538;-5.646;2022-10-31T00:50:51;101286.38;;;23.46
69704;BMP280;56967;43.538;-5.646;2022-10-31T00:53:17;101289.88;;;23.47
69704;BMP280;56967;43.538;-5.646;2022-10-31T00:55:42;101280.03;;;23.93
69704;BMP280;56967;43.538;-5.646;2022-10-31T00:58:08;101277.50;;;23.45
69704;BMP280;56967;43.538;-5.646;2022-10-31T01:00:33;101280.06;;;23.56
69704;BMP280;56967;43.538;-5.646;2022-10-31T01:02:59;101281.22;;;22.89
69704;BMP280;56967;43.538;-5.646;2022-10-31T01:05:25;101275.66;;;22.80
69704;BMP280;56967;43.538;-5.646;2022-10-31T01:07:50;101260.59;;;23.64
69704;BMP280;56967;43.538;-5.646;2022-10-31T01:10:16;101264.19;;;24.23
69704;BMP280;56967;43.538;-5.646;2022-10-31T01:12:45;101258.78;;;25.54
69704;BMP280;56967;43.538;-5.646;2022-10-31T01:15:13;101245.97;;;22.95
69704;BMP280;56967;43.538;-5.646;2022-10-31T01:17:39;101251.09;;;23.15
69704;BMP280;56967;43.538;-5.646;2022-10-31T01:20:07;101237.50;;;22.88
69704;BMP280;56967;43.538;-5.646;2022-10-31T01:22:33;101236.16;;;22.10
69704;BMP280;56967;43.538;-5.646;2022-10-31T01:24:58;101237.38;;;22.75
69704;BMP280;56967;43.538;-5.646;2022-10-31T01:27:24;101240.38;;;22.16
69704;BMP280;56967;43.538;-5.646;2022-10-31T01:29:50;101245.81;;;23.10
69704;BMP280;56967;43.538;-5.646;2022-10-31T01:32:15;101228.69;;;22.83
69704;BMP280;56967;43.538;-5.646;2022-10-31T01:34:41;101229.78;;;23.24
69704;BMP280;56967;43.538;-5.646;2022-10-31T01:37:06;101234.50;;;24.01
69704;BMP280;56967;43.538;-5.646;2022-10-31T01:39:32;101234.81;;;22.65
69704;BMP280;56967;43.538;-5.646;2022-10-31T01:41:57;101228.69;;;22.35
69704;BMP280;56967;43.538;-5.646;2022-10-31T01:46:53;101212.22;;;22.71
69704;BMP280;56967;43.538;-5.646;2022-10-31T01:49:58;101225.53;;;22.99
69704;BMP280;56967;43.538;-5.646;2022-10-31T01:52:29;101225.66;;;21.36
69704;BMP280;56967;43.538;-5.646;2022-10-31T01:55:05;101216.63;;;22.62
69704;BMP280;56967;43.538;-5.646;2022-10-31T01:57:33;101215.47;;;22.91
69704;BMP280;56967;43.538;-5.646;2022-10-31T02:00:04;101214.94;;;23.82
69704;BMP280;56967;43.538;-5.646;2022-10-31T02:02:31;101222.13;;;22.94
69704;BMP280;56967;43.538;-5.646;2022-10-31T02:04:59;101200.00;;;23.07
69704;BMP280;56967;43.538;-5.646;2022-10-31T02:07:49;101196.41;;;24.26
69704;BMP280;56967;43.538;-5.646;2022-10-31T02:10:16;101198.91;;;23.77
69704;BMP280;56967;43.538;-5.646;2022-10-31T02:12:41;101192.59;;;24.00
69704;BMP280;56967;43.538;-5.646;2022-10-31T02:15:08;101196.56;;;23.89
69704;BMP280;56967;43.538;-5.646;2022-10-31T02:17:34;101195.97;;;23.92
69704;BMP280;56967;43.538;-5.646;2022-10-31T02:20:17;101185.31;;;23.87
69704;BMP280;56967;43.538;-5.646;2022-10-31T02:31:32;101155.50;;;24.57
69704;BMP280;56967;43.538;-5.646;2022-10-31T02:34:17;101143.66;;;23.90
69704;BMP280;56967;43.538;-5.646;2022-10-31T02:36:57;101141.88;;;24.53
69704;BMP280;56967;43.538;-5.646;2022-10-31T02:39:27;101129.75;;;24.15
69704;BMP280;56967;43.538;-5.646;2022-10-31T02:42:05;101114.59;;;23.92
69704;BMP280;56967;43.538;-5.646;2022-10-31T02:44:47;101122.81;;;23.68
69704;BMP280;56967;43.538;-5.646;2022-10-31T02:47:20;101118.19;;;23.87
69704;BMP280;56967;43.538;-5.646;2022-10-31T02:52:33;101112.59;;;23.19
69704;BMP280;56967;43.538;-5.646;2022-10-31T02:57:54;101087.06;;;23.54
69704;BMP280;56967;43.538;-5.646;2022-10-31T03:00:22;101096.25;;;23.53
69704;BMP280;56967;43.538;-5.646;2022-10-31T03:06:17;101080.09;;;23.07
69704;BMP280;56967;43.538;-5.646;2022-10-31T03:08:55;101062.94;;;23.95
69704;BMP280;56967;43.538;-5.646;2022-10-31T03:11:24;101060.22;;;22.90
69704;BMP280;56967;43.538;-5.646;2022-10-31T03:14:08;101053.19;;;22.56
69704;BMP280;56967;43.538;-5.646;2022-10-31T03:19:19;101045.09;;;22.80
69704;BMP280;56967;43.538;-5.646;2022-10-31T03:21:59;101036.28;;;23.12
69704;BMP280;56967;43.538;-5.646;2022-10-31T03:24:30;101035.16;;;23.13
69704;BMP280;56967;43.538;-5.646;2022-10-31T03:26:59;101010.84;;;23.23
69704;BMP280;56967;43.538;-5.646;2022-10-31T03:29:28;101014.47;;;23.32
69704;BMP280;56967;43.538;-5.646;2022-10-31T03:32:00;101002.97;;;23.13
69704;BMP280;56967;43.538;-5.646;2022-10-31T03:34:28;101012.41;;;22.59
69704;BMP280;56967;43.538;-5.646;2022-10-31T03:36:57;101002.59;;;24.86
69704;BMP280;56967;43.538;-5.646;2022-10-31T03:39:24;101006.28;;;23.23
69704;BMP280;56967;43.538;-5.646;2022-10-31T03:41:56;101014.03;;;23.57
69704;BMP280;56967;43.538;-5.646;2022-10-31T03:44:23;101031.22;;;23.10
69704;BMP280;56967;43.538;-5.646;2022-10-31T03:46:49;101013.75;;;23.26
69704;BMP280;56967;43.538;-5.646;2022-10-31T03:49:16;101009.88;;;24.27
69704;BMP280;56967;43.538;-5.646;2022-10-31T03:56:47;100992.69;;;24.28
69704;BMP280;56967;43.538;-5.646;2022-10-31T03:59:36;100992.25;;;23.72
69704;BMP280;56967;43.538;-5.646;2022-10-31T04:02:06;100988.44;;;23.46
69704;BMP280;56967;43.538;-5.646;2022-10-31T04:04:34;101003.66;;;24.18
69704;BMP280;56967;43.538;-5.646;2022-10-31T04:07:01;101001.94;;;23.41
69704;BMP280;56967;43.538;-5.646;2022-10-31T04:09:27;101012.91;;;24.26
69704;BMP280;56967;43.538;-5.646;2022-10-31T04:11:57;101011.63;;;23.56
69704;BMP280;56967;43.538;-5.646;2022-10-31T04:14:25;101011.00;;;24.13
69704;BMP280;56967;43.538;-5.646;2022-10-31T04:16:51;101015.63;;;23.72
69704;BMP280;56967;43.538;-5.646;2022-10-31T04:19:17;101019.09;;;22.62
69704;BMP280;56967;43.538;-5.646;2022-10-31T04:21:42;101021.75;;;22.81
69704;BMP280;56967;43.538;-5.646;2022-10-31T04:24:11;101027.16;;;23.26
69704;BMP280;56967;43.538;-5.646;2022-10-31T04:26:36;101009.22;;;24.22
69704;BMP280;56967;43.538;-5.646;2022-10-31T04:29:02;100987.66;;;23.59
69704;BMP280;56967;43.538;-5.646;2022-10-31T04:31:28;100989.94;;;24.86
69704;BMP280;56967;43.538;-5.646;2022-10-31T04:33:53;100981.78;;;22.98
69704;BMP280;56967;43.538;-5.646;2022-10-31T04:36:19;100991.88;;;23.65
69704;BMP280;56967;43.538;-5.646;2022-10-31T04:38:44;101000.84;;;23.15
69704;BMP280;56967;43.538;-5.646;2022-10-31T04:41:10;100994.53;;;24.42
69704;BMP280;56967;43.538;-5.646;2022-10-31T04:43:35;100983.94;;;24.23
69704;BMP280;56967;43.538;-5.646;2022-10-31T04:46:01;100978.94;;;25.83
69704;BMP280;56967;43.538;-5.646;2022-10-31T04:48:26;100974.94;;;23.65
69704;BMP280;56967;43.538;-5.646;2022-10-31T04:50:52;100972.56;;;25.23
69704;BMP280;56967;43.538;-5.646;2022-10-31T04:53:17;100959.44;;;23.89
69704;BMP280;56967;43.538;-5.646;2022-10-31T04:55:43;100965.34;;;24.49
69704;BMP280;56967;43.538;-5.646;2022-10-31T04:58:08;100954.59;;;23.99
69704;BMP280;56967;43.538;-5.646;2022-10-31T05:00:34;100945.91;;;24.52
69704;BMP280;56967;43.538;-5.646;2022-10-31T05:02:59;100943.59;;;25.68
69704;BMP280;56967;43.538;-5.646;2022-10-31T05:05:27;100935.66;;;24.54
69704;BMP280;56967;43.538;-5.646;2022-10-31T05:07:53;100932.84;;;24.89
69704;BMP280;56967;43.538;-5.646;2022-10-31T05:10:21;100929.09;;;24.24
69704;BMP280;56967;43.538;-5.646;2022-10-31T05:12:49;100911.75;;;24.74
69704;BMP280;56967;43.538;-5.646;2022-10-31T05:15:17;100910.75;;;25.01
69704;BMP280;56967;43.538;-5.646;2022-10-31T05:17:43;100919.84;;;25.87
69704;BMP280;56967;43.538;-5.646;2022-10-31T05:20:10;100912.78;;;24.95
69704;BMP280;56967;43.538;-5.646;2022-10-31T05:22:35;100904.66;;;23.35
69704;BMP280;56967;43.538;-5.646;2022-10-31T05:25:01;100896.34;;;24.44
69704;BMP280;56967;43.538;-5.646;2022-10-31T05:27:26;100887.19;;;24.67
69704;BMP280;56967;43.538;-5.646;2022-10-31T05:29:52;100881.75;;;23.79
69704;BMP280;56967;43.538;-5.646;2022-10-31T05:32:17;100876.00;;;23.44
69704;BMP280;56967;43.538;-5.646;2022-10-31T05:34:43;100878.66;;;23.85
69704;BMP280;56967;43.538;-5.646;2022-10-31T05:37:08;100871.84;;;24.23
69704;BMP280;56967;43.538;-5.646;2022-10-31T05:39:34;100871.91;;;25.24
69704;BMP280;56967;43.538;-5.646;2022-10-31T05:41:59;100877.84;;;25.52
69704;BMP280;56967;43.538;-5.646;2022-10-31T05:44:25;100877.69;;;25.74
69704;BMP280;56967;43.538;-5.646;2022-10-31T05:46:50;100877.03;;;24.64
69704;BMP280;56967;43.538;-5.646;2022-10-31T05:49:15;100868.16;;;24.64
69704;BMP280;56967;43.538;-5.646;2022-10-31T05:51:42;100855.75;;;23.66
69704;BMP280;56967;43.538;-5.646;2022-10-31T05:54:08;100858.72;;;24.22
69704;BMP280;56967;43.538;-5.646;2022-10-31T05:56:33;100853.31;;;25.79
69704;BMP280;56967;43.538;-5.646;2022-10-31T05:58:59;100840.44;;;24.55
69704;BMP280;56967;43.538;-5.646;2022-10-31T06:01:24;100844.09;;;25.88
69704;BMP280;56967;43.538;-5.646;2022-10-31T06:03:50;100839.78;;;24.80
69704;BMP280;56967;43.538;-5.646;2022-10-31T06:06:15;100834.09;;;23.84
69704;BMP280;56967;43.538;-5.646;2022-10-31T06:08:41;100840.97;;;24.35
69704;BMP280;56967;43.538;-5.646;2022-10-31T06:11:06;100834.13;;;24.28
69704;BMP280;56967;43.538;-5.646;2022-10-31T06:13:32;100826.94;;;25.25
69704;BMP280;56967;43.538;-5.646;2022-10-31T06:15:57;100827.19;;;24.97
69704;BMP280;56967;43.538;-5.646;2022-10-31T06:18:23;100827.25;;;25.23
69704;BMP280;56967;43.538;-5.646;2022-10-31T06:20:48;100805.22;;;26.06
69704;BMP280;56967;43.538;-5.646;2022-10-31T06:23:14;100810.53;;;25.86
69704;BMP280;56967;43.538;-5.646;2022-10-31T06:25:39;100814.28;;;25.25
69704;BMP280;56967;43.538;-5.646;2022-10-31T06:28:05;100803.66;;;25.97
69704;BMP280;56967;43.538;-5.646;2022-10-31T06:30:30;100808.25;;;25.19
69704;BMP280;56967;43.538;-5.646;2022-10-31T06:33:04;100794.63;;;26.01
69704;BMP280;56967;43.538;-5.646;2022-10-31T06:35:30;100785.97;;;23.52
69704;BMP280;56967;43.538;-5.646;2022-10-31T06:37:56;100788.03;;;24.35
69704;BMP280;56967;43.538;-5.646;2022-10-31T06:40:22;100772.81;;;26.32
69704;BMP280;56967;43.538;-5.646;2022-10-31T06:42:47;100779.28;;;25.51
69704;BMP280;56967;43.538;-5.646;2022-10-31T06:45:20;100741.31;;;27.89
69704;BMP280;56967;43.538;-5.646;2022-10-31T06:47:51;100732.88;;;24.85
69704;BMP280;56967;43.538;-5.646;2022-10-31T06:50:16;100733.69;;;25.54
69704;BMP280;56967;43.538;-5.646;2022-10-31T06:52:42;100731.78;;;25.20
69704;BMP280;56967;43.538;-5.646;2022-10-31T06:55:07;100723.63;;;24.69
69704;BMP280;56967;43.538;-5.646;2022-10-31T06:57:33;100706.78;;;25.63
69704;BMP280;56967;43.538;-5.646;2022-10-31T06:59:58;100713.88;;;25.67
69704;BMP280;56967;43.538;-5.646;2022-10-31T07:02:24;100721.63;;;25.86
69704;BMP280;56967;43.538;-5.646;2022-10-31T07:04:49;100715.00;;;25.06
69704;BMP280;56967;43.538;-5.646;2022-10-31T07:07:15;100702.50;;;25.02
69704;BMP280;56967;43.538;-5.646;2022-10-31T07:09:40;100700.75;;;26.70
69704;BMP280;56967;43.538;-5.646;2022-10-31T07:12:06;100692.44;;;25.88
69704;BMP280;56967;43.538;-5.646;2022-10-31T07:14:31;100690.63;;;26.00
69704;BMP280;56967;43.538;-5.646;2022-10-31T07:16:57;100685.72;;;27.55
69704;BMP280;56967;43.538;-5.646;2022-10-31T07:19:22;100680.88;;;27.16
69704;BMP280;56967;43.538;-5.646;2022-10-31T07:21:48;100689.38;;;26.65
69704;BMP280;56967;43.538;-5.646;2022-10-31T07:24:13;100694.00;;;27.26
69704;BMP280;56967;43.538;-5.646;2022-10-31T07:26:39;100692.25;;;28.75
69704;BMP280;56967;43.538;-5.646;2022-10-31T07:29:04;100691.97;;;27.68
69704;BMP280;56967;43.538;-5.646;2022-10-31T07:31:30;100684.22;;;27.90
69704;BMP280;56967;43.538;-5.646;2022-10-31T07:33:55;100680.22;;;28.60
69704;BMP280;56967;43.538;-5.646;2022-10-31T07:36:21;100672.00;;;27.48
69704;BMP280;56967;43.538;-5.646;2022-10-31T07:38:46;100664.31;;;26.85
69704;BMP280;56967;43.538;-5.646;2022-10-31T07:41:12;100662.06;;;25.79
69704;BMP280;56967;43.538;-5.646;2022-10-31T07:43:37;100653.94;;;26.25
69704;BMP280;56967;43.538;-5.646;2022-10-31T07:46:03;100653.13;;;26.74
69704;BMP280;56967;43.538;-5.646;2022-10-31T07:48:28;100662.75;;;26.34
69704;BMP280;56967;43.538;-5.646;2022-10-31T07:50:55;100663.00;;;24.46
69704;BMP280;56967;43.538;-5.646;2022-10-31T07:53:20;100651.72;;;23.96
69704;BMP280;56967;43.538;-5.646;2022-10-31T07:55:46;100639.50;;;25.92
69704;BMP280;56967;43.538;-5.646;2022-10-31T07:58:14;100637.03;;;26.37
69704;BMP280;56967;43.538;-5.646;2022-10-31T08:00:41;100617.41;;;25.69
69704;BMP280;56967;43.538;-5.646;2022-10-31T08:03:09;100615.38;;;25.58
69704;BMP280;56967;43.538;-5.646;2022-10-31T08:05:35;100601.94;;;24.38
69704;BMP280;56967;43.538;-5.646;2022-10-31T08:08:02;100588.94;;;27.00
69704;BMP280;56967;43.538;-5.646;2022-10-31T08:10:28;100590.19;;;27.72
69704;BMP280;56967;43.538;-5.646;2022-10-31T08:13:01;100587.88;;;29.67
69704;BMP280;56967;43.538;-5.646;2022-10-31T08:15:27;100589.91;;;30.85
69704;BMP280;56967;43.538;-5.646;2022-10-31T08:17:54;100589.06;;;28.76
69704;BMP280;56967;43.538;-5.646;2022-10-31T08:20:20;100609.47;;;30.52
69704;BMP280;56967;43.538;-5.646;2022-10-31T08:23:00;100605.72;;;30.60
69704;BMP280;56967;43.538;-5.646;2022-10-31T08:25:29;100615.72;;;27.86
69704;BMP280;56967;43.538;-5.646;2022-10-31T08:27:55;100612.88;;;29.76
69704;BMP280;56967;43.538;-5.646;2022-10-31T08:30:23;100616.41;;;31.89
69704;BMP280;56967;43.538;-5.646;2022-10-31T08:33:04;100618.72;;;29.94
69704;BMP280;56967;43.538;-5.646;2022-10-31T08:35:31;100629.28;;;31.92
69704;BMP280;56967;43.538;-5.646;2022-10-31T08:37:57;100636.00;;;32.01
69704;BMP280;56967;43.538;-5.646;2022-10-31T08:40:27;100632.59;;;30.65
69704;BMP280;56967;43.538;-5.646;2022-10-31T08:42:58;100638.53;;;31.12
69704;BMP280;56967;43.538;-5.646;2022-10-31T08:45:24;100642.63;;;31.25
69704;BMP280;56967;43.538;-5.646;2022-10-31T08:47:50;100665.22;;;28.90
69704;BMP280;56967;43.538;-5.646;2022-10-31T08:50:16;100666.00;;;27.99
69704;BMP280;56967;43.538;-5.646;2022-10-31T08:52:41;100655.47;;;30.45
69704;BMP280;56967;43.538;-5.646;2022-10-31T08:55:07;100651.97;;;31.50
69704;BMP280;56967;43.538;-5.646;2022-10-31T08:57:33;100659.75;;;32.67
69704;BMP280;56967;43.538;-5.646;2022-10-31T08:59:58;100665.34;;;32.44
69704;BMP280;56967;43.538;-5.646;2022-10-31T09:02:24;100670.66;;;33.07
69704;BMP280;56967;43.538;-5.646;2022-10-31T09:04:49;100668.44;;;32.79
69704;BMP280;56967;43.538;-5.646;2022-10-31T09:07:15;100666.91;;;31.86
69704;BMP280;56967;43.538;-5.646;2022-10-31T09:09:40;100667.19;;;31.10
69704;BMP280;56967;43.538;-5.646;2022-10-31T09:12:06;100655.34;;;30.99
69704;BMP280;56967;43.538;-5.646;2022-10-31T09:14:31;100629.19;;;30.68
69704;BMP280;56967;43.538;-5.646;2022-10-31T09:16:57;100638.44;;;33.20
69704;BMP280;56967;43.538;-5.646;2022-10-31T09:19:22;100640.75;;;33.14
69704;BMP280;56967;43.538;-5.646;2022-10-31T09:21:52;100658.94;;;32.00
69704;BMP280;56967;43.538;-5.646;2022-10-31T09:24:17;100660.91;;;31.51
69704;BMP280;56967;43.538;-5.646;2022-10-31T09:26:43;100668.66;;;30.85
69704;BMP280;56967;43.538;-5.646;2022-10-31T09:29:08;100662.66;;;30.57
69704;BMP280;56967;43.538;-5.646;2022-10-31T09:31:37;100683.78;;;32.91
69704;BMP280;56967;43.538;-5.646;2022-10-31T09:34:06;100659.94;;;31.89
69704;BMP280;56967;43.538;-5.646;2022-10-31T09:36:31;100663.56;;;32.29
69704;BMP280;56967;43.538;-5.646;2022-10-31T09:38:57;100661.38;;;32.38
69704;BMP280;56967;43.538;-5.646;2022-10-31T09:49:51;100656.84;;;31.41
69704;BMP280;56967;43.538;-5.646;2022-10-31T09:52:46;100661.03;;;35.27
69704;BMP280;56967;43.538;-5.646;2022-10-31T09:55:17;100655.38;;;35.90
69704;BMP280;56967;43.538;-5.646;2022-10-31T09:57:45;100650.66;;;36.01
69704;BMP280;56967;43.538;-5.646;2022-10-31T10:00:19;100660.78;;;34.00
69704;BMP280;56967;43.538;-5.646;2022-10-31T10:06:04;100649.63;;;34.37
69704;BMP280;56967;43.538;-5.646;2022-10-31T10:08:33;100648.06;;;33.03
69704;BMP280;56967;43.538;-5.646;2022-10-31T10:16:26;100642.00;;;31.58
69704;BMP280;56967;43.538;-5.646;2022-10-31T10:32:28;100675.06;;;27.71
69704;BMP280;56967;43.538;-5.646;2022-10-31T10:34:59;100666.22;;;27.38
69704;BMP280;56967;43.538;-5.646;2022-10-31T10:37:34;100675.97;;;27.30
69704;BMP280;56967;43.538;-5.646;2022-10-31T10:40:11;100686.38;;;27.40
69704;BMP280;56967;43.538;-5.646;2022-10-31T10:42:45;100684.53;;;27.77
69704;BMP280;56967;43.538;-5.646;2022-10-31T10:45:32;100679.50;;;28.11
69704;BMP280;56967;43.538;-5.646;2022-10-31T10:48:38;100670.41;;;28.68
69704;BMP280;56967;43.538;-5.646;2022-10-31T10:51:10;100654.94;;;28.68
69704;BMP280;56967;43.538;-5.646;2022-10-31T10:56:36;100665.25;;;29.34
69704;BMP280;56967;43.538;-5.646;2022-10-31T10:59:09;100665.69;;;29.36
69704;BMP280;56967;43.538;-5.646;2022-10-31T11:01:36;100668.72;;;30.31
69704;BMP280;56967;43.538;-5.646;2022-10-31T11:04:07;100663.41;;;29.84
69704;BMP280;56967;43.538;-5.646;2022-10-31T11:06:39;100670.22;;;29.94
69704;BMP280;56967;43.538;-5.646;2022-10-31T11:09:11;100664.34;;;30.07
69704;BMP280;56967;43.538;-5.646;2022-10-31T11:11:38;100670.56;;;30.08
69704;BMP280;56967;43.538;-5.646;2022-10-31T11:14:11;100670.53;;;31.00
69704;BMP280;56967;43.538;-5.646;2022-10-31T11:16:39;100672.84;;;31.01
69704;BMP280;56967;43.538;-5.646;2022-10-31T11:19:09;100678.31;;;31.24
69704;BMP280;56967;43.538;-5.646;2022-10-31T11:21:41;100679.84;;;31.21
69704;BMP280;56967;43.538;-5.646;2022-10-31T11:26:40;100696.50;;;32.17
69704;BMP280;56967;43.538;-5.646;2022-10-31T11:29:21;100697.06;;;32.63
69704;BMP280;56967;43.538;-5.646;2022-10-31T11:31:50;100693.13;;;32.60
69704;BMP280;56967;43.538;-5.646;2022-10-31T11:34:29;100710.09;;;32.47
69704;BMP280;56967;43.538;-5.646;2022-10-31T11:37:01;100717.00;;;32.70
69704;BMP280;56967;43.538;-5.646;2022-10-31T11:39:28;100713.84;;;32.35
69704;BMP280;56967;43.538;-5.646;2022-10-31T11:41:54;100723.06;;;32.60
69704;BMP280;56967;43.538;-5.646;2022-10-31T11:44:27;100711.78;;;33.32
69704;BMP280;56967;43.538;-5.646;2022-10-31T11:46:58;100712.38;;;33.11
69704;BMP280;56967;43.538;-5.646;2022-10-31T11:49:37;100709.75;;;33.22
69704;BMP280;56967;43.538;-5.646;2022-10-31T11:52:19;100720.94;;;33.57
69704;BMP280;56967;43.538;-5.646;2022-10-31T11:57:29;100727.38;;;33.89
69704;BMP280;56967;43.538;-5.646;2022-10-31T11:59:57;100725.56;;;33.49
69704;BMP280;56967;43.538;-5.646;2022-10-31T12:02:23;100724.56;;;33.24
69704;BMP280;56967;43.538;-5.646;2022-10-31T12:05:04;100722.22;;;33.23
69704;BMP280;56967;43.538;-5.646;2022-10-31T12:07:32;100724.53;;;32.84
69704;BMP280;56967;43.538;-5.646;2022-10-31T12:09:57;100729.31;;;32.94
69704;BMP280;56967;43.538;-5.646;2022-10-31T12:15:34;100742.16;;;33.34
69704;BMP280;56967;43.538;-5.646;2022-10-31T12:23:56;100725.84;;;32.31
69704;BMP280;56967;43.538;-5.646;2022-10-31T12:26:27;100725.84;;;32.31
69704;BMP280;56967;43.538;-5.646;2022-10-31T12:46:40;100770.28;;;31.22
69704;BMP280;56967;43.538;-5.646;2022-10-31T12:49:37;100774.13;;;31.21
69704;BMP280;56967;43.538;-5.646;2022-10-31T13:02:29;100799.66;;;30.97
69704;BMP280;56967;43.538;-5.646;2022-10-31T13:05:18;100812.91;;;30.64
69704;BMP280;56967;43.538;-5.646;2022-10-31T13:08:09;100831.81;;;30.76
69704;BMP280;56967;43.538;-5.646;2022-10-31T13:14:01;100845.94;;;29.73
69704;BMP280;56967;43.538;-5.646;2022-10-31T13:16:33;100854.81;;;30.16
69704;BMP280;56967;43.538;-5.646;2022-10-31T13:19:14;100861.00;;;35.04
69704;BMP280;56967;43.538;-5.646;2022-10-31T13:21:53;100876.84;;;34.64
69704;BMP280;56967;43.538;-5.646;2022-10-31T13:24:52;100883.78;;;34.47
69704;BMP280;56967;43.538;-5.646;2022-10-31T13:27:54;100879.22;;;34.79
69704;BMP280;56967;43.538;-5.646;2022-10-31T13:30:20;100873.72;;;34.65
69704;BMP280;56967;43.538;-5.646;2022-10-31T13:33:04;100865.16;;;34.74
69704;BMP280;56967;43.538;-5.646;2022-10-31T13:38:18;100861.03;;;35.25
69704;BMP280;56967;43.538;-5.646;2022-10-31T13:43:43;100877.88;;;35.27
69704;BMP280;56967;43.538;-5.646;2022-10-31T13:46:24;100885.88;;;36.78
69704;BMP280;56967;43.538;-5.646;2022-10-31T13:48:51;100888.47;;;35.67
69704;BMP280;56967;43.538;-5.646;2022-10-31T13:51:31;100895.00;;;31.88
69704;BMP280;56967;43.538;-5.646;2022-10-31T13:54:00;100891.59;;;35.41
69704;BMP280;56967;43.538;-5.646;2022-10-31T13:56:30;100902.84;;;35.26
69704;BMP280;56967;43.538;-5.646;2022-10-31T14:01:35;100926.69;;;31.58
69704;BMP280;56967;43.538;-5.646;2022-10-31T14:04:07;100937.00;;;34.74
69704;BMP280;56967;43.538;-5.646;2022-10-31T14:07:15;100945.22;;;37.23
69704;BMP280;56967;43.538;-5.646;2022-10-31T14:12:46;100958.94;;;33.21
69704;BMP280;56967;43.538;-5.646;2022-10-31T14:15:25;100953.59;;;35.09
69704;BMP280;56967;43.538;-5.646;2022-10-31T14:18:06;100958.75;;;35.35
69704;BMP280;56967;43.538;-5.646;2022-10-31T14:26:17;100975.03;;;32.28
69704;BMP280;56967;43.538;-5.646;2022-10-31T14:28:43;100983.84;;;33.19
69704;BMP280;56967;43.538;-5.646;2022-10-31T14:34:36;100997.78;;;32.17
69704;BMP280;56967;43.538;-5.646;2022-10-31T14:48:42;101087.16;;;30.80
69704;BMP280;56967;43.538;-5.646;2022-10-31T14:51:14;101098.53;;;32.01
69704;BMP280;56967;43.538;-5.646;2022-10-31T14:53:49;101099.06;;;29.56
69704;BMP280;56967;43.538;-5.646;2022-10-31T14:56:25;101096.38;;;32.71
69704;BMP280;56967;43.538;-5.646;2022-10-31T14:58:57;101105.63;;;28.54
69704;BMP280;56967;43.538;-5.646;2022-10-31T15:01:27;101095.84;;;27.91
69704;BMP280;56967;43.538;-5.646;2022-10-31T15:03:58;101116.00;;;27.64
69704;BMP280;56967;43.538;-5.646;2022-10-31T15:06:26;101113.22;;;26.72
69704;BMP280;56967;43.538;-5.646;2022-10-31T15:08:55;101128.88;;;26.95
69704;BMP280;56967;43.538;-5.646;2022-10-31T15:11:24;101144.00;;;26.79
69704;BMP280;56967;43.538;-5.646;2022-10-31T15:13:53;101137.72;;;26.19
69704;BMP280;56967;43.538;-5.646;2022-10-31T15:16:25;101135.53;;;25.82
69704;BMP280;56967;43.538;-5.646;2022-10-31T15:19:04;101144.69;;;25.72
69704;BMP280;56967;43.538;-5.646;2022-10-31T15:21:41;101139.94;;;26.08
69704;BMP280;56967;43.538;-5.646;2022-10-31T15:24:14;101148.28;;;26.72
69704;BMP280;56967;43.538;-5.646;2022-10-31T15:26:53;101173.03;;;26.91
69704;BMP280;56967;43.538;-5.646;2022-10-31T15:29:23;101177.81;;;26.94
69704;BMP280;56967;43.538;-5.646;2022-10-31T15:31:53;101195.81;;;26.42
69704;BMP280;56967;43.538;-5.646;2022-10-31T15:36:51;101186.06;;;26.15
69704;BMP280;56967;43.538;-5.646;2022-10-31T15:39:20;101201.34;;;26.29
69704;BMP280;56967;43.538;-5.646;2022-10-31T15:41:51;101201.81;;;25.91
69704;BMP280;56967;43.538;-5.646;2022-10-31T15:46:57;101207.03;;;26.19
69704;BMP280;56967;43.538;-5.646;2022-10-31T15:49:37;101202.19;;;26.55
69704;BMP280;56967;43.538;-5.646;2022-10-31T15:52:14;101226.50;;;25.18
69704;BMP280;56967;43.538;-5.646;2022-10-31T15:54:54;101224.13;;;26.14
69704;BMP280;56967;43.538;-5.646;2022-10-31T15:57:24;101205.25;;;25.31
69704;BMP280;56967;43.538;-5.646;2022-10-31T15:59:52;101224.53;;;25.10
69704;BMP280;56967;43.538;-5.646;2022-10-31T16:02:26;101239.75;;;25.51
69704;BMP280;56967;43.538;-5.646;2022-10-31T16:05:00;101241.47;;;25.47
69704;BMP280;56967;43.538;-5.646;2022-10-31T16:07:29;101241.00;;;25.45
69704;BMP280;56967;43.538;-5.646;2022-10-31T16:10:03;101250.06;;;26.01
69704;BMP280;56967;43.538;-5.646;2022-10-31T16:12:44;101248.69;;;26.43
69704;BMP280;56967;43.538;-5.646;2022-10-31T16:15:15;101262.25;;;26.30
69704;BMP280;56967;43.538;-5.646;2022-10-31T16:17:42;101270.38;;;27.37
69704;BMP280;56967;43.538;-5.646;2022-10-31T16:20:19;101267.00;;;28.99
69704;BMP280;56967;43.538;-5.646;2022-10-31T16:22:48;101285.09;;;27.91